Guvercinlik, Turkey

12:38 AM EEST on May 31, 2015 (GMT +0300)
Etimesgut Air Base | | Change Station
CLOSE
Current Station
Airport
Location: Ankara Etimesgut AB,
Elevation: 2644 ft
Nearby Weather Stations

Elev 2644 ft 39.95 °N, 32.69 °E | Updated 20 minutes ago

Light Rain Showers
Light Showers Rain
54 °F
Feels Like 54 °F
N
7
Wind Variable Wind from NW

Today
High -- | Low -- °F
--% Chance of Precip.
Yesterday
High -- | Low -- °F
Precip. -- in
5:23 AM 8:10 PM
Waxing Gibbous, 92% visible
Pressure 29.98 in
Visibility 6.2 miles
Clouds Scattered Clouds 3700 ft
Mostly Cloudy 10000 ft
Dew Point 52 °F
Humidity 94%
Rainfall 0.01 in
Snow Depth Not available.
UV 0 out of 12
Pollen Not available.
Air Quality Not available.
Flu Activity Not available.
SPECI LTAD 302118Z 31006KT 9999 -SHRA SCT037 BKN100 12/11 Q1015 NOSIG RMK RWY29 31005KT

More Conditions Fewer Conditions

Pressure 29.98 in
Visibility 6.2 miles
Clouds Scattered Clouds 3700 ft
Mostly Cloudy 10000 ft
Dew Point 52 °F
Humidity 94%
Rainfall 0.01 in
Snow Depth Not available.
UV 0 out of 12
Pollen Not available.
Air Quality Not available.
Flu Activity Not available.
SPECI LTAD 302118Z 31006KT 9999 -SHRA SCT037 BKN100 12/11 Q1015 NOSIG RMK RWY29 31005KT

More Conditions Fewer Conditions

10-Day Weather Forecast

Almanac

Astronomy

May. 31, 2015 Rise Set
Actual Time
Civil Twilight
Nautical Twilight
Astronomical Twilight
Moon
Length of Visible Light
Length of Day
Tomorrow will be .
, % of the Moon is Illuminated

Today's Extremes

Country Highs Country Lows

Community

WunderPhotos

Upload Photos

1,825,606 photos uploaded!

WunderBlogs® & News

Nearby

Air Quality

  Air Quality AQ Index Pollutant
Not available.

Snow Depth

Station Depth Elevation

Earthquake Activity

City Distance Mag. Time & Date
Minimum magnitude displayed is 2.5.

Coastal Water Temperatures

Place Temperature

Stations

Nearby Weather Stations

Station Location Temp. Windchill Dew Point Humidity Wind Precip. Elev Updated Type